Time;durP1;ratioP1;P1;durP2;ratioP2;P2;SDS_P1;SDS_P2;PMS_P1;PMS_P2;Temp;Humidity;BMP_temperature;BMP_pressure;BME280_temperature;BME280_humidity;BME280_pressure;Samples;Min_cycle;Max_cycle;Signal;HPM_P1;HPM_P2
2021/05/29 00:01:14;;;;;;;7.33;4.65;;;;;;;12.48;86.64;94525.69;1651597;85;20992;-59
2021/05/29 00:03:41;;;;;;;6.97;5.53;;;;;;;12.47;86.51;94526.17;1653672;85;21656;-59
2021/05/29 00:06:07;;;;;;;10.03;5.80;;;;;;;12.40;86.58;94525.88;1654512;85;21614;-59
2021/05/29 00:08:35;;;;;;;6.20;5.25;;;;;;;12.39;86.90;94527.11;1649696;85;21084;-59
2021/05/29 00:11:04;;;;;;;5.05;4.08;;;;;;;12.44;86.91;94527.10;1650646;86;21614;-58
2021/05/29 00:13:31;;;;;;;4.33;3.92;;;;;;;12.46;86.52;94524.02;1652808;85;21111;-58
2021/05/29 00:15:58;;;;;;;4.45;3.98;;;;;;;12.45;86.22;94521.10;1654198;85;21141;-59
2021/05/29 00:18:25;;;;;;;4.40;3.70;;;;;;;12.43;86.30;94520.80;1652127;85;21060;-59
2021/05/29 00:20:52;;;;;;;5.15;4.12;;;;;;;12.44;86.39;94522.33;1648067;86;21072;-60
2021/05/29 00:23:19;;;;;;;6.83;4.50;;;;;;;12.43;86.38;94538.73;1648856;85;21119;-59
2021/05/29 00:25:46;;;;;;;4.37;4.00;;;;;;;12.38;86.26;94535.84;1653591;85;21120;-59
2021/05/29 00:28:14;;;;;;;6.45;4.28;;;;;;;12.31;86.45;94527.30;1648398;86;21099;-56
2021/05/29 00:30:42;;;;;;;10.10;6.83;;;;;;;12.31;86.64;94526.52;1643496;86;21014;-58
2021/05/29 00:33:09;;;;;;;17.15;10.90;;;;;;;12.30;86.82;94528.48;1636615;86;21058;-58
2021/05/29 00:35:36;;;;;;;18.98;11.10;;;;;;;12.28;86.98;94529.57;1623760;87;21173;-58
2021/05/29 00:38:04;;;;;;;9.13;6.53;;;;;;;12.30;87.20;94534.01;1635519;87;21070;-58
2021/05/29 00:40:32;;;;;;;9.93;6.08;;;;;;;12.35;87.19;94534.78;1633166;86;21689;-58
2021/05/29 00:42:58;;;;;;;11.28;6.53;;;;;;;12.40;86.72;94532.77;1633195;86;21553;-58
2021/05/29 00:45:27;;;;;;;14.35;6.30;;;;;;;12.39;86.73;94535.98;1636979;87;21569;-59
2021/05/29 00:47:55;;;;;;;6.03;4.78;;;;;;;12.40;86.71;94538.29;1635527;86;21590;-59
2021/05/29 00:50:22;;;;;;;8.28;5.75;;;;;;;12.41;86.53;94537.06;1639769;87;21153;-58
2021/05/29 00:52:49;;;;;;;13.88;6.40;;;;;;;12.36;86.57;94540.45;1626259;85;21097;-57
2021/05/29 00:55:16;;;;;;;4.65;4.10;;;;;;;12.36;86.52;94532.77;1636991;86;21605;-58
2021/05/29 00:57:48;;;;;;;7.00;5.03;;;;;;;12.33;86.10;94537.25;1639707;86;21543;-56
2021/05/29 01:00:18;;;;;;;6.08;5.25;;;;;;;12.24;86.22;94535.87;1630473;86;21241;-59
2021/05/29 01:02:48;;;;;;;5.75;5.20;;;;;;;12.19;86.33;94533.73;1635772;87;21047;-57
2021/05/29 01:05:18;;;;;;;6.65;5.12;;;;;;;12.16;86.56;94532.51;1633947;86;21104;-58
2021/05/29 01:07:52;;;;;;;9.98;5.72;;;;;;;12.11;86.89;94526.99;1639968;86;21071;-59
2021/05/29 01:10:20;;;;;;;;;;;;;;;12.13;86.95;94534.22;1654169;85;21154;-56
2021/05/29 01:12:47;;;;;;;7.78;4.92;;;;;;;12.13;87.13;94527.33;1652204;85;20240;-59
2021/05/29 01:15:18;;;;;;;5.10;4.60;;;;;;;12.12;87.21;94525.02;1651387;85;21056;-59
2021/05/29 01:17:44;;;;;;;4.75;4.35;;;;;;;12.13;87.12;94531.46;1650500;85;21086;-58
2021/05/29 01:20:14;;;;;;;10.48;4.17;;;;;;;12.14;86.89;94532.21;1653828;85;21031;-58
2021/05/29 01:22:52;;;;;;;7.92;4.17;;;;;;;12.10;86.65;94528.22;1653344;86;21087;-59
2021/05/29 01:25:36;;;;;;;5.03;4.00;;;;;;;12.02;86.48;94527.62;1652133;85;21639;-58
2021/05/29 01:28:12;;;;;;;5.60;3.70;;;;;;;11.94;86.54;94523.66;1623824;86;21070;-60
2021/05/29 01:30:48;;;;;;;4.20;3.62;;;;;;;11.91;86.89;94524.58;1603487;88;21131;-58
2021/05/29 01:33:18;;;;;;;5.03;3.60;;;;;;;11.94;86.74;94527.80;1605912;88;21077;-58
2021/05/29 01:35:45;;;;;;;3.60;3.30;;;;;;;11.92;86.39;94524.11;1601687;88;21715;-57
2021/05/29 01:38:14;;;;;;;4.00;3.70;;;;;;;11.89;86.42;94527.79;1598764;88;21600;-58
2021/05/29 01:40:40;;;;;;;4.87;3.60;;;;;;;11.91;86.56;94523.95;1600026;88;21662;-58
2021/05/29 01:43:09;;;;;;;5.20;3.58;;;;;;;11.88;86.33;94523.50;1599157;88;21245;-59
2021/05/29 01:45:39;;;;;;;3.80;3.50;;;;;;;11.87;86.37;94525.36;1601851;88;21228;-59
2021/05/29 01:48:07;;;;;;;3.90;3.60;;;;;;;11.89;86.52;94525.03;1600188;88;21087;-58
2021/05/29 01:50:45;;;;;;;7.28;4.50;;;;;;;11.93;86.44;94524.25;1611547;86;21332;-60
2021/05/29 01:53:04;;;;;;;7.08;4.78;;;;;;;11.95;86.47;94527.34;1627833;86;21716;-59
2021/05/29 01:55:33;;;;;;;9.68;4.90;;;;;;;11.97;86.45;94522.73;1630437;87;21167;-59
2021/05/29 01:58:00;;;;;;;5.17;4.67;;;;;;;11.93;86.45;94528.39;1630875;87;21012;-59
2021/05/29 02:00:29;;;;;;;5.67;3.75;;;;;;;11.92;86.54;94517.84;1629309;87;21022;-59
2021/05/29 02:02:56;;;;;;;4.78;4.28;;;;;;;11.91;86.76;94518.44;1639109;86;21130;-58
2021/05/29 02:05:27;;;;;;;6.08;4.17;;;;;;;11.90;86.63;94518.29;1632187;87;21006;-59
2021/05/29 02:07:54;;;;;;;4.62;4.22;;;;;;;11.89;86.62;94516.02;1645779;87;21216;-59
2021/05/29 02:10:27;;;;;;;5.17;4.10;;;;;;;11.82;86.53;94517.08;1633545;87;21201;-59
2021/05/29 02:12:56;;;;;;;4.00;3.70;;;;;;;11.79;86.93;94522.14;1627528;87;21121;-59
2021/05/29 02:15:30;;;;;;;8.38;4.05;;;;;;;11.79;86.98;94516.63;1632419;86;21066;-57
2021/05/29 02:18:00;;;;;;;6.35;4.35;;;;;;;11.82;87.04;94511.57;1632018;87;21144;-58
2021/05/29 02:20:46;;;;;;;6.55;4.78;;;;;;;11.86;86.82;94514.93;1630254;86;21660;-59
2021/05/29 02:23:21;;;;;;;4.60;4.20;;;;;;;11.87;86.50;94519.22;1632882;86;21030;-59
2021/05/29 02:25:50;;;;;;;6.72;4.28;;;;;;;11.84;86.52;94511.09;1635041;87;21003;-59
2021/05/29 02:28:18;;;;;;;5.40;4.90;;;;;;;11.80;86.65;94506.36;1637610;86;21012;-58
2021/05/29 02:30:45;;;;;;;8.30;4.10;;;;;;;11.76;86.61;94506.53;1642845;86;20994;-58
2021/05/29 02:33:12;;;;;;;5.60;4.47;;;;;;;11.73;86.35;94510.18;1642659;85;21135;-58
2021/05/29 02:35:38;;;;;;;7.15;4.37;;;;;;;11.68;86.31;94501.16;1651005;85;21028;-58
2021/05/29 02:38:06;;;;;;;7.90;4.10;;;;;;;11.62;86.38;94498.87;1650460;85;21210;-59
2021/05/29 02:40:32;;;;;;;3.55;3.35;;;;;;;11.58;86.29;94512.05;1650659;85;21095;-58
2021/05/29 02:42:59;;;;;;;8.03;3.62;;;;;;;11.55;86.46;94510.78;1651121;85;21131;-58
2021/05/29 02:45:27;;;;;;;4.00;3.70;;;;;;;11.53;86.37;94513.98;1650292;85;21248;-58
2021/05/29 02:47:54;;;;;;;4.20;3.85;;;;;;;11.49;86.40;94512.63;1651896;85;21033;-57
2021/05/29 02:50:22;;;;;;;4.53;4.15;;;;;;;11.43;86.59;94517.19;1647608;86;21000;-59
2021/05/29 02:52:49;;;;;;;4.58;3.85;;;;;;;11.44;87.09;94517.34;1653438;85;21084;-59
2021/05/29 02:55:22;;;;;;;4.12;3.83;;;;;;;11.49;87.19;94521.64;1643234;86;20992;-59
2021/05/29 02:57:45;;;;;;;6.05;3.80;;;;;;;11.53;87.06;94519.48;1648571;86;21199;-59
2021/05/29 03:00:13;;;;;;;3.87;3.58;;;;;;;11.49;86.90;94521.64;1645374;85;21095;-59
2021/05/29 03:02:40;;;;;;;4.35;3.67;;;;;;;11.47;86.97;94522.70;1650046;85;21114;-58
2021/05/29 03:05:08;;;;;;;6.17;3.37;;;;;;;11.48;86.87;94525.61;1651400;85;21151;-58
2021/05/29 03:07:35;;;;;;;6.83;3.87;;;;;;;11.49;86.84;94524.39;1652088;86;21177;-58
2021/05/29 03:10:03;;;;;;;5.95;4.33;;;;;;;11.49;86.99;94521.64;1651701;85;21172;-58
2021/05/29 03:12:30;;;;;;;10.48;4.97;;;;;;;11.49;86.94;94518.88;1651032;86;21529;-58
2021/05/29 03:14:58;;;;;;;5.42;4.10;;;;;;;11.50;86.96;94527.30;1652462;85;21024;-58
2021/05/29 03:17:25;;;;;;;5.03;4.15;;;;;;;11.50;86.83;94516.28;1655034;85;21599;-58
2021/05/29 03:19:51;;;;;;;7.90;4.47;;;;;;;11.51;86.69;94517.80;1651880;86;21126;-58
2021/05/29 03:22:18;;;;;;;5.28;4.80;;;;;;;11.52;86.66;94515.83;1654240;86;21167;-58
2021/05/29 03:24:45;;;;;;;6.50;4.40;;;;;;;11.53;86.73;94519.48;1655067;85;21079;-58
2021/05/29 03:27:16;;;;;;;7.83;4.60;;;;;;;11.56;86.63;94515.84;1648340;85;21106;-59
2021/05/29 03:29:40;;;;;;;4.45;4.05;;;;;;;11.58;86.89;94512.05;1606485;87;21090;-60
2021/05/29 03:32:07;;;;;;;7.20;4.53;;;;;;;11.69;87.09;94505.45;1603565;87;21667;-58
2021/05/29 03:34:34;;;;;;;5.22;4.72;;;;;;;11.77;86.74;94509.44;1602396;88;21132;-59
2021/05/29 03:37:00;;;;;;;5.85;5.30;;;;;;;11.79;86.58;94505.61;1613322;87;21070;-58
2021/05/29 03:39:27;;;;;;;3.98;3.67;;;;;;;11.78;86.72;94512.34;1604676;88;21078;-59
2021/05/29 03:41:54;;;;;;;4.42;4.12;;;;;;;11.82;86.75;94511.57;1601602;86;21190;-59
2021/05/29 03:44:20;;;;;;;3.70;3.40;;;;;;;11.85;86.33;94514.78;1618894;87;21030;-58
2021/05/29 03:46:49;;;;;;;4.42;4.03;;;;;;;11.86;86.11;94512.17;1610052;87;21010;-60
2021/05/29 03:49:15;;;;;;;6.58;4.10;;;;;;;11.90;86.22;94505.89;1603781;88;21137;-57
2021/05/29 03:51:42;;;;;;;7.20;4.28;;;;;;;11.92;85.92;94510.95;1607661;86;21077;-58
2021/05/29 03:54:08;;;;;;;5.25;4.50;;;;;;;11.97;85.67;94510.33;1614740;86;21141;-56
2021/05/29 03:56:35;;;;;;;4.33;3.92;;;;;;;12.07;85.07;94512.61;1604501;86;21130;-58
2021/05/29 03:59:03;;;;;;;8.20;4.80;;;;;;;12.10;84.77;94508.92;1610937;86;21183;-58
2021/05/29 04:01:31;;;;;;;12.00;5.60;;;;;;;12.13;84.89;94514.14;1632043;86;21268;-58
2021/05/29 04:03:58;;;;;;;7.08;4.28;;;;;;;12.15;85.04;94519.95;1637513;86;21026;-59
2021/05/29 04:06:24;;;;;;;4.53;4.12;;;;;;;12.17;84.27;94514.14;1638262;86;21058;-59
2021/05/29 04:08:52;;;;;;;7.72;4.05;;;;;;;12.16;84.15;94515.96;1632654;86;21078;-59
2021/05/29 04:11:18;;;;;;;7.40;3.83;;;;;;;12.20;84.02;94506.91;1635594;86;21089;-59
2021/05/29 04:13:45;;;;;;;6.97;3.83;;;;;;;12.21;83.34;94511.20;1632301;86;21082;-58
2021/05/29 04:16:11;;;;;;;4.85;4.35;;;;;;;12.25;83.31;94505.68;1636418;86;21139;-59
2021/05/29 04:18:38;;;;;;;5.90;5.33;;;;;;;12.33;83.34;94503.36;1633401;86;21040;-59
2021/05/29 04:21:06;;;;;;;5.60;5.10;;;;;;;12.37;83.59;94515.00;1641412;86;21054;-59
2021/05/29 04:23:33;;;;;;;7.15;4.75;;;;;;;12.40;83.85;94505.19;1639035;86;21141;-59
2021/05/29 04:26:00;;;;;;;5.47;3.37;;;;;;;12.46;83.66;94502.57;1636230;87;21055;-60
2021/05/29 04:28:28;;;;;;;4.37;3.95;;;;;;;12.48;82.45;94494.59;1632304;85;21008;-59
2021/05/29 04:30:54;;;;;;;8.78;4.15;;;;;;;12.50;81.77;94495.66;1634873;86;21562;-58
2021/05/29 04:33:21;;;;;;;4.15;3.85;;;;;;;12.48;81.03;94495.34;1634039;86;21074;-59
2021/05/29 04:35:48;;;;;;;5.87;3.90;;;;;;;12.47;80.82;94489.67;1635612;86;21109;-59
2021/05/29 04:38:15;;;;;;;8.60;4.20;;;;;;;12.52;80.23;94487.68;1627626;86;21091;-60
2021/05/29 04:40:42;;;;;;;4.08;3.27;;;;;;;12.59;79.76;94489.50;1637157;86;21114;-58
2021/05/29 04:43:09;;;;;;;5.90;3.77;;;;;;;12.66;78.68;94486.99;1650751;85;21178;-59
2021/05/29 04:45:35;;;;;;;14.33;4.12;;;;;;;12.67;78.33;94491.28;1655655;86;21551;-60
2021/05/29 04:48:05;;;;;;;8.03;4.53;;;;;;;12.62;78.02;94482.27;1651500;86;21615;-60
2021/05/29 04:50:32;;;;;;;9.10;3.75;;;;;;;12.57;77.77;94479.52;1651039;86;21052;-60
2021/05/29 04:52:59;;;;;;;4.92;3.95;;;;;;;12.46;77.61;94478.48;1650986;86;20988;-59
2021/05/29 04:55:26;;;;;;;5.20;3.98;;;;;;;12.40;78.06;94482.34;1651047;87;21594;-59
2021/05/29 04:57:53;;;;;;;13.05;4.12;;;;;;;12.36;78.27;94479.77;1650827;86;21583;-59
2021/05/29 05:00:21;;;;;;;6.08;3.80;;;;;;;12.34;78.62;94473.95;1652109;85;21101;-59
2021/05/29 05:02:49;;;;;;;7.53;4.12;;;;;;;12.34;78.36;94464.89;1652974;85;20988;-59
2021/05/29 05:05:17;;;;;;;4.25;3.85;;;;;;;12.38;78.36;94464.11;1652866;86;21072;-57
2021/05/29 05:07:43;;;;;;;4.75;4.05;;;;;;;12.41;78.32;94464.58;1649778;85;21076;-59
2021/05/29 05:10:12;;;;;;;4.47;4.17;;;;;;;12.44;78.27;94467.16;1649729;85;20985;-59
2021/05/29 05:12:38;;;;;;;6.75;4.03;;;;;;;12.52;78.25;94467.59;1650627;86;21118;-59
2021/05/29 05:15:07;;;;;;;4.85;4.45;;;;;;;12.60;78.22;94462.65;1652333;85;21535;-60
2021/05/29 05:17:34;;;;;;;4.33;3.77;;;;;;;12.72;78.17;94461.69;1647763;86;21078;-60
2021/05/29 05:20:01;;;;;;;7.42;4.17;;;;;;;12.85;78.11;94462.21;1649562;86;21009;-59
2021/05/29 05:22:29;;;;;;;4.47;4.08;;;;;;;12.98;78.34;94460.03;1653997;86;21543;-59
2021/05/29 05:24:55;;;;;;;7.50;4.55;;;;;;;13.12;78.38;94459.34;1650587;86;21084;-58
2021/05/29 05:27:22;;;;;;;6.60;4.30;;;;;;;13.26;78.21;94453.11;1636102;86;21660;-61
2021/05/29 05:29:49;;;;;;;10.35;5.08;;;;;;;13.40;78.18;94447.63;1603560;88;21156;-58
2021/05/29 05:32:16;;;;;;;8.00;4.12;;;;;;;13.52;77.85;94445.84;1605423;88;21150;-57
2021/05/29 05:34:42;;;;;;;4.65;4.05;;;;;;;13.62;77.71;94449.44;1612578;87;21030;-59
2021/05/29 05:37:09;;;;;;;8.73;4.58;;;;;;;13.73;76.97;94450.27;1600638;88;21193;-59
2021/05/29 05:39:36;;;;;;;4.28;3.92;;;;;;;13.84;76.75;94448.47;1606643;87;21090;-58
2021/05/29 05:42:04;;;;;;;7.15;4.67;;;;;;;14.01;76.63;94441.23;1599534;88;21174;-59
2021/05/29 05:44:31;;;;;;;7.75;4.45;;;;;;;14.17;75.69;94441.44;1605965;88;21190;-60
2021/05/29 05:46:57;;;;;;;7.00;4.92;;;;;;;14.29;74.74;94441.75;1598942;88;21525;-59
2021/05/29 05:49:24;;;;;;;5.25;4.75;;;;;;;14.37;74.57;94444.29;1603280;88;21245;-59
2021/05/29 05:51:51;;;;;;;4.62;3.98;;;;;;;14.45;74.20;94442.04;1606659;88;21154;-59
2021/05/29 05:54:17;;;;;;;4.90;4.15;;;;;;;14.60;73.87;94441.41;1606313;88;21748;-60
2021/05/29 05:56:44;;;;;;;5.60;4.12;;;;;;;14.73;73.25;94448.76;1600518;88;21150;-60
2021/05/29 05:59:11;;;;;;;6.15;4.30;;;;;;;14.85;72.85;94447.05;1600207;88;21141;-58
2021/05/29 06:01:43;;;;;;;5.08;4.53;;;;;;;14.97;72.26;94446.62;1600688;88;21142;-60
2021/05/29 06:04:06;;;;;;;4.50;4.10;;;;;;;15.05;71.91;94447.72;1559586;89;21183;-60
2021/05/29 06:06:33;;;;;;;4.20;3.83;;;;;;;15.12;71.30;94449.47;1573667;87;21174;-59
2021/05/29 06:08:59;;;;;;;5.47;4.47;;;;;;;15.17;71.25;94447.39;1612871;87;21129;-60
2021/05/29 06:11:26;;;;;;;4.45;3.90;;;;;;;15.22;70.67;94441.79;1652491;85;21127;-60
2021/05/29 06:19:16;;;;;;;17.12;10.50;;;;;;;15.40;70.45;94443.69;1651617;86;21206;-60
2021/05/29 06:21:48;;;;;;;6.12;4.60;;;;;;;15.50;70.44;94438.76;1651085;85;21131;-60
2021/05/29 06:24:22;;;;;;;5.58;4.58;;;;;;;15.62;69.68;94443.97;1651155;85;21047;-59
2021/05/29 06:26:49;;;;;;;11.00;5.40;;;;;;;15.69;68.71;94447.70;1649054;85;21564;-60
2021/05/29 06:29:17;;;;;;;17.75;5.50;;;;;;;15.73;68.00;94447.50;1601897;87;21182;-59
2021/05/29 06:31:45;;;;;;;7.92;4.58;;;;;;;15.78;68.20;94442.02;1607647;87;21604;-59
2021/05/29 06:34:12;;;;;;;9.83;4.45;;;;;;;15.88;67.53;94435.05;1606334;87;21055;-61
2021/05/29 06:36:39;;;;;;;4.45;3.83;;;;;;;15.91;67.98;94441.01;1611741;87;21129;-60
2021/05/29 06:39:06;;;;;;;9.43;3.70;;;;;;;15.92;68.13;94445.30;1607794;87;21123;-58
2021/05/29 06:41:33;;;;;;;5.92;3.83;;;;;;;16.00;67.96;94440.86;1602121;87;21150;-61
2021/05/29 06:44:00;;;;;;;5.03;3.42;;;;;;;16.09;67.62;94442.08;1604714;87;21169;-60
2021/05/29 06:46:26;;;;;;;7.92;3.90;;;;;;;16.20;65.86;94440.81;1605242;87;21126;-60
2021/05/29 06:48:56;;;;;;;4.72;3.65;;;;;;;16.32;64.95;94437.64;1604650;88;21118;-62
2021/05/29 06:52:01;;;;;;;4.75;3.52;;;;;;;16.40;62.36;94435.22;1633082;86;21515;-62
2021/05/29 06:54:01;;;;;;;3.62;2.87;;;;;;;16.43;60.75;94437.00;1634030;86;21460;-61
2021/05/29 06:59:12;;;;;;;5.83;2.90;;;;;;;16.43;58.50;94431.45;1635470;86;21197;-62
2021/05/29 07:01:39;;;;;;;7.08;3.77;;;;;;;16.36;58.43;94431.91;1647000;85;21033;-61
2021/05/29 07:04:05;;;;;;;6.75;3.67;;;;;;;16.30;59.05;94433.82;1628934;86;21056;-60
2021/05/29 07:06:33;;;;;;;9.48;3.77;;;;;;;16.36;59.14;94434.68;1628013;86;21114;-61
2021/05/29 07:09:00;;;;;;;5.90;3.08;;;;;;;16.48;59.36;94432.12;1631075;86;21162;-60
2021/05/29 07:11:27;;;;;;;4.00;3.12;;;;;;;16.53;58.37;94434.20;1639692;87;21090;-60
2021/05/29 07:13:55;;;;;;;3.55;3.20;;;;;;;16.48;58.48;94427.95;1636875;86;21058;-63
2021/05/29 07:16:23;;;;;;;3.90;2.95;;;;;;;16.44;58.39;94423.25;1628911;86;21054;-61
2021/05/29 07:18:51;;;;;;;4.37;3.42;;;;;;;16.39;57.95;94419.17;1631926;85;21043;-60
2021/05/29 07:21:18;;;;;;;9.53;4.08;;;;;;;16.35;57.93;94423.44;1631322;87;21601;-60
2021/05/29 07:23:47;;;;;;;7.87;3.35;;;;;;;16.34;58.77;94423.28;1642158;86;21089;-60
2021/05/29 07:26:14;;;;;;;7.87;3.67;;;;;;;16.33;60.01;94420.37;1629096;86;21121;-61
2021/05/29 07:28:40;;;;;;;10.15;3.55;;;;;;;16.37;59.81;94419.55;1628383;86;21153;-61
2021/05/29 07:31:07;;;;;;;3.30;3.00;;;;;;;16.46;60.00;94422.91;1633735;86;21039;-60
2021/05/29 07:33:33;;;;;;;4.30;3.12;;;;;;;16.60;59.22;94419.23;1634929;86;21078;-61
2021/05/29 07:36:00;;;;;;;3.50;3.20;;;;;;;16.73;58.11;94421.59;1627838;87;21026;-61
2021/05/29 07:38:27;;;;;;;5.85;3.20;;;;;;;16.88;58.57;94422.96;1632359;87;21074;-62
2021/05/29 07:40:54;;;;;;;3.10;2.90;;;;;;;17.07;58.40;94419.92;1621502;86;21126;-61
2021/05/29 07:43:21;;;;;;;4.80;3.02;;;;;;;17.26;57.99;94423.08;1634254;86;21755;-59
2021/05/29 07:45:50;;;;;;;3.85;3.20;;;;;;;17.41;58.05;94420.27;1627315;86;21051;-61
2021/05/29 07:48:17;;;;;;;3.27;2.92;;;;;;;17.57;58.12;94409.06;1635096;86;21059;-61
2021/05/29 07:53:34;;;;;;;3.20;2.90;;;;;;;17.75;56.44;94410.79;1633993;87;21212;-61
2021/05/29 07:56:03;;;;;;;3.72;2.65;;;;;;;17.75;54.61;94408.01;1630170;86;21143;-62
2021/05/29 07:58:30;;;;;;;5.83;3.90;;;;;;;17.71;55.50;94410.89;1630825;86;21077;-60
2021/05/29 08:00:58;;;;;;;5.67;3.33;;;;;;;17.73;55.81;94405.58;1634689;87;21047;-60
2021/05/29 08:03:26;;;;;;;4.47;3.30;;;;;;;17.81;55.99;94409.42;1638158;86;21121;-61
2021/05/29 08:05:54;;;;;;;5.17;3.70;;;;;;;17.95;55.66;94407.03;1637549;85;21601;-60
2021/05/29 08:08:22;;;;;;;11.15;5.03;;;;;;;18.13;55.14;94410.12;1620323;86;21198;-58
2021/05/29 08:10:50;;;;;;;17.25;6.12;;;;;;;18.29;54.97;94412.95;1634456;85;21145;-59
2021/05/29 08:13:17;;;;;;;9.08;4.50;;;;;;;18.46;55.03;94399.80;1633271;85;21101;-58
2021/05/29 08:15:44;;;;;;;5.47;3.40;;;;;;;18.58;54.66;94399.16;1647879;85;21108;-59
2021/05/29 08:18:15;;;;;;;4.28;3.33;;;;;;;18.63;53.56;94399.16;1629790;86;21102;-60
2021/05/29 08:20:44;;;;;;;11.25;4.67;;;;;;;18.70;52.24;94404.87;1631593;86;21099;-60
2021/05/29 08:23:11;;;;;;;3.33;3.02;;;;;;;18.76;52.80;94401.43;1630719;86;20982;-61
2021/05/29 08:25:37;;;;;;;3.08;2.70;;;;;;;18.88;53.00;94405.73;1639641;85;21063;-60
2021/05/29 08:28:04;;;;;;;3.95;2.58;;;;;;;19.01;52.32;94406.73;1631263;85;21221;-61
2021/05/29 08:30:31;;;;;;;4.65;2.85;;;;;;;19.13;53.72;94406.06;1628916;86;21735;-57
2021/05/29 08:32:58;;;;;;;2.85;2.62;;;;;;;19.23;51.89;94403.91;1635724;85;21019;-61
2021/05/29 08:35:24;;;;;;;3.00;2.70;;;;;;;19.31;52.85;94402.75;1632020;86;21078;-59
2021/05/29 08:37:51;;;;;;;9.15;6.92;;;;;;;19.47;52.08;94402.72;1633531;87;21093;-61
2021/05/29 08:40:19;;;;;;;4.35;2.95;;;;;;;19.56;49.16;94401.67;1632848;86;21031;-59
2021/05/29 08:42:46;;;;;;;5.65;3.40;;;;;;;19.55;49.07;94399.51;1624225;86;21703;-60
2021/05/29 08:45:16;;;;;;;9.13;2.70;;;;;;;19.56;50.07;94396.84;1648108;85;21353;-60
2021/05/29 08:47:45;;;;;;;4.62;2.22;;;;;;;19.62;49.54;94394.80;1632347;87;21112;-60
2021/05/29 08:50:12;;;;;;;5.28;3.17;;;;;;;19.61;48.71;94393.29;1605628;87;21093;-61
2021/05/29 08:52:40;;;;;;;3.33;2.50;;;;;;;19.60;49.38;94397.33;1628720;87;21055;-61
2021/05/29 08:55:13;;;;;;;3.83;2.30;;;;;;;19.58;48.24;94394.29;1614864;87;21260;-61
2021/05/29 08:57:41;;;;;;;5.35;2.42;;;;;;;19.50;49.64;94386.97;1631602;85;21183;-61
2021/05/29 09:00:12;;;;;;;7.00;2.58;;;;;;;19.33;49.74;94382.84;1633106;87;21066;-60
2021/05/29 09:03:06;;;;;;;2.85;2.50;;;;;;;19.14;50.14;94393.64;1635702;86;21202;-61
2021/05/29 09:05:50;;;;;;;4.25;2.75;;;;;;;18.96;50.16;94394.19;1628365;86;21002;-60
2021/05/29 09:08:18;;;;;;;8.00;3.47;;;;;;;18.68;49.76;94387.25;1634533;86;21117;-58
2021/05/29 09:10:53;;;;;;;6.95;3.20;;;;;;;18.45;50.67;94387.14;1639253;86;21146;-60
2021/05/29 09:13:23;;;;;;;7.42;3.60;;;;;;;18.24;51.30;94387.22;1635896;87;21048;-61
2021/05/29 09:16:05;;;;;;;9.35;2.90;;;;;;;18.04;52.26;94388.72;1628431;86;21171;-59
2021/05/29 09:18:41;;;;;;;6.17;3.08;;;;;;;17.90;52.91;94392.48;1631135;86;21506;-60
2021/05/29 09:21:30;;;;;;;4.83;2.80;;;;;;;17.77;53.24;94393.58;1641573;87;21160;-60
2021/05/29 09:24:04;;;;;;;6.40;3.52;;;;;;;17.68;53.76;94388.25;1629384;86;21133;-62
2021/05/29 09:26:54;;;;;;;3.22;2.42;;;;;;;17.55;54.40;94390.73;1633182;86;21695;-59
2021/05/29 09:29:28;;;;;;;4.95;3.30;;;;;;;17.48;54.17;94397.52;1605107;88;21541;-61
2021/05/29 09:32:05;;;;;;;6.30;3.00;;;;;;;17.42;54.61;94402.31;1615427;88;21129;-60
2021/05/29 09:34:40;;;;;;;8.48;3.72;;;;;;;17.38;55.02;94401.02;1608503;87;21812;-60
2021/05/29 09:37:16;;;;;;;6.05;3.65;;;;;;;17.36;54.85;94400.14;1608129;88;21058;-59
2021/05/29 09:39:47;;;;;;;4.03;3.08;;;;;;;17.32;55.97;94403.00;1613202;87;21057;-60
2021/05/29 09:42:15;;;;;;;7.03;3.35;;;;;;;17.23;57.22;94405.36;1629265;86;21031;-60
2021/05/29 09:44:42;;;;;;;6.45;3.35;;;;;;;17.06;58.61;94401.72;1638943;87;21187;-60
2021/05/29 09:47:14;;;;;;;4.05;2.80;;;;;;;16.90;59.74;94409.33;1628294;87;21108;-60
2021/05/29 09:49:55;;;;;;;3.63;3.33;;;;;;;16.77;61.01;94407.59;1632597;86;21014;-61
2021/05/29 09:52:35;;;;;;;4.62;3.20;;;;;;;16.68;62.23;94400.85;1641122;86;21111;-62
2021/05/29 09:55:13;;;;;;;4.97;3.70;;;;;;;16.55;62.93;94410.86;1627563;87;21365;-61
2021/05/29 09:57:53;;;;;;;3.72;3.30;;;;;;;16.43;63.97;94410.62;1635640;87;21027;-61
2021/05/29 10:00:20;;;;;;;3.58;3.27;;;;;;;16.32;64.87;94409.88;1630173;87;21112;-61
2021/05/29 10:03:04;;;;;;;4.62;3.95;;;;;;;16.33;65.16;94416.20;1639768;86;21115;-61
2021/05/29 10:05:34;;;;;;;9.95;5.45;;;;;;;16.34;66.21;94412.17;1635998;86;21119;-61
2021/05/29 10:08:04;;;;;;;13.35;5.28;;;;;;;16.39;66.76;94417.78;1648966;86;20996;-60
2021/05/29 10:10:36;;;;;;;7.65;5.47;;;;;;;16.40;67.35;94419.95;1646906;85;21041;-61
2021/05/29 10:13:02;;;;;;;7.12;4.42;;;;;;;16.38;68.31;94419.03;1650976;85;21524;-60
2021/05/29 10:15:31;;;;;;;8.13;5.40;;;;;;;16.37;67.87;94417.52;1650122;86;21116;-60
2021/05/29 10:18:00;;;;;;;4.42;3.80;;;;;;;16.45;68.23;94418.61;1648499;85;21175;-59
2021/05/29 10:20:26;;;;;;;4.17;3.77;;;;;;;16.59;68.23;94417.72;1651440;85;21098;-60
2021/05/29 10:22:53;;;;;;;3.80;3.02;;;;;;;16.79;67.22;94419.61;1650764;85;21670;-59
2021/05/29 10:25:21;;;;;;;5.45;3.80;;;;;;;17.07;66.44;94428.26;1652007;85;21126;-59
2021/05/29 10:27:51;;;;;;;6.08;3.90;;;;;;;17.44;66.75;94421.30;1630630;86;21580;-61
2021/05/29 10:30:23;;;;;;;4.42;3.50;;;;;;;17.80;66.02;94421.81;1600918;88;21141;-61
2021/05/29 10:33:11;;;;;;;6.75;4.67;;;;;;;18.11;64.38;94420.23;1605905;87;21038;-60
2021/05/29 10:35:39;;;;;;;9.55;4.08;;;;;;;18.39;62.07;94417.02;1606803;87;21243;-60
2021/05/29 10:38:09;;;;;;;9.85;4.62;;;;;;;18.71;61.22;94409.95;1603868;87;21185;-61
2021/05/29 10:40:49;;;;;;;5.35;3.55;;;;;;;19.10;60.29;94414.84;1602339;87;21071;-61
2021/05/29 10:43:21;;;;;;;6.22;4.50;;;;;;;19.46;57.29;94410.20;1600708;87;21095;-62
2021/05/29 10:45:56;;;;;;;3.97;3.30;;;;;;;19.74;56.76;94418.59;1611956;87;21239;-60
2021/05/29 10:48:25;;;;;;;7.53;3.75;;;;;;;20.00;55.35;94416.20;1597483;87;21688;-60
2021/05/29 10:50:59;;;;;;;5.03;3.02;;;;;;;20.27;55.03;94418.09;1623436;85;21690;-59
2021/05/29 10:53:57;;;;;;;3.75;3.35;;;;;;;20.31;54.82;94422.13;1625411;86;21097;-61
2021/05/29 10:56:27;;;;;;;3.20;2.92;;;;;;;20.35;53.36;94416.27;1630206;86;21132;-61
2021/05/29 10:59:09;;;;;;;4.20;3.37;;;;;;;20.43;54.16;94411.63;1632359;86;21107;-61
2021/05/29 11:01:48;;;;;;;9.05;3.80;;;;;;;20.27;55.76;94409.70;1631662;87;21133;-61
2021/05/29 11:04:27;;;;;;;4.20;3.30;;;;;;;20.10;55.66;94410.44;1630519;86;21845;-62
2021/05/29 11:07:19;;;;;;;4.37;3.30;;;;;;;19.93;55.82;94409.74;1638798;86;21640;-61
2021/05/29 11:09:52;;;;;;;6.78;3.65;;;;;;;19.74;55.79;94403.23;1629526;86;21079;-59
2021/05/29 11:12:18;;;;;;;5.95;3.35;;;;;;;19.53;55.85;94397.87;1629245;86;21027;-60
2021/05/29 11:14:52;;;;;;;5.17;2.90;;;;;;;19.34;55.78;94401.76;1636513;86;21117;-60
2021/05/29 11:17:25;;;;;;;7.85;6.00;;;;;;;19.11;55.79;94403.80;1632066;86;21109;-60
2021/05/29 11:20:19;;;;;;;5.35;4.78;;;;;;;18.89;56.56;94396.88;1636396;85;21047;-61
2021/05/29 11:22:46;;;;;;;4.22;3.83;;;;;;;18.70;57.50;94402.86;1635093;86;21169;-60
2021/05/29 11:25:21;;;;;;;5.72;4.60;;;;;;;18.34;58.99;94392.72;1627900;87;21177;-59
2021/05/29 11:27:49;;;;;;;4.08;2.90;;;;;;;18.22;61.50;94391.16;1626394;86;21641;-60
2021/05/29 11:30:23;;;;;;;3.98;3.33;;;;;;;18.19;62.14;94385.20;1633341;86;21104;-61
2021/05/29 11:33:02;;;;;;;3.42;2.98;;;;;;;18.20;62.55;94390.90;1631855;86;21047;-61
2021/05/29 11:35:46;;;;;;;3.52;3.22;;;;;;;18.15;62.74;94388.09;1637225;86;20998;-60
2021/05/29 11:38:26;;;;;;;3.00;2.70;;;;;;;18.07;61.20;94391.88;1645058;86;21085;-60
2021/05/29 11:41:10;;;;;;;2.90;2.70;;;;;;;18.13;60.82;94391.37;1636034;85;21193;-61
2021/05/29 11:43:50;;;;;;;4.20;2.95;;;;;;;18.18;60.62;94396.83;1637598;86;21106;-61
2021/05/29 11:46:22;;;;;;;4.03;3.42;;;;;;;18.24;59.05;94390.01;1631292;86;21529;-62
2021/05/29 11:49:02;;;;;;;4.25;2.80;;;;;;;18.30;58.12;94383.83;1628159;86;21019;-57
2021/05/29 11:51:37;;;;;;;3.85;2.90;;;;;;;18.43;58.67;94384.75;1638023;87;21110;-60
2021/05/29 11:54:16;;;;;;;4.12;3.77;;;;;;;18.57;58.01;94384.48;1633548;86;21071;-60
2021/05/29 11:56:51;;;;;;;6.33;3.72;;;;;;;18.66;57.92;94381.42;1632534;87;21645;-60